createdAt,value
2023-02-08T00:01:42.874Z,24.00
2023-02-08T00:04:12.157Z,28.20
2023-02-08T00:06:41.517Z,27.33
2023-02-08T00:09:10.999Z,29.13
2023-02-08T00:11:40.273Z,30.95
2023-02-08T00:14:09.947Z,28.75
2023-02-08T00:16:39.164Z,27.85
2023-02-08T00:19:08.399Z,23.67
2023-02-08T00:21:37.725Z,24.67
2023-02-08T00:24:07.500Z,30.48
2023-02-08T00:26:36.803Z,152.48
2023-02-08T00:29:06.485Z,77.78
2023-02-08T00:31:35.830Z,35.25
2023-02-08T00:34:05.110Z,35.17
2023-02-08T00:36:34.388Z,27.25
2023-02-08T00:39:03.782Z,28.42
2023-02-08T00:41:33.068Z,28.00
2023-02-08T00:44:02.245Z,24.05
2023-02-08T00:46:31.580Z,32.33
2023-02-08T00:49:00.967Z,32.10
2023-02-08T00:51:30.166Z,27.05
2023-02-08T00:53:59.503Z,36.42
2023-02-08T00:56:28.796Z,25.33
2023-02-08T00:58:58.129Z,22.95
2023-02-08T01:01:27.446Z,21.48
2023-02-08T01:03:56.635Z,27.60
2023-02-08T01:06:26.173Z,26.33
2023-02-08T01:08:57.449Z,26.15
2023-02-08T01:11:28.505Z,29.17
2023-02-08T01:13:59.432Z,62.42
2023-02-08T01:16:34.931Z,33.45
2023-02-08T01:19:06.785Z,32.33
2023-02-08T01:21:40.241Z,25.92
2023-02-08T01:24:10.409Z,24.38
2023-02-08T01:26:40.435Z,24.92
2023-02-08T01:29:10.242Z,24.75
2023-02-08T01:31:42.555Z,26.70
2023-02-08T01:34:13.765Z,20.75
2023-02-08T01:36:43.183Z,40.47
2023-02-08T01:39:13.264Z,28.92
2023-02-08T01:41:46.181Z,28.08
2023-02-08T01:44:17.937Z,28.10
2023-02-08T01:46:52.330Z,27.27
2023-02-08T01:49:34.125Z,20.90
2023-02-08T01:52:24.748Z,28.13
2023-02-08T01:55:35.201Z,21.77
2023-02-08T01:58:12.421Z,22.77
2023-02-08T02:00:42.531Z,18.20
2023-02-08T02:03:14.610Z,22.08
2023-02-08T02:05:51.519Z,23.70
2023-02-08T02:08:20.894Z,26.80
2023-02-08T02:10:51.594Z,21.98
2023-02-08T02:13:32.025Z,21.65
2023-02-08T02:16:09.763Z,20.55
2023-02-08T02:18:39.589Z,44.95
2023-02-08T02:21:52.458Z,32.83
2023-02-08T02:24:39.646Z,20.92
2023-02-08T02:27:36.237Z,25.50
2023-02-08T02:30:59.810Z,22.88
2023-02-08T02:34:33.172Z,23.63
2023-02-08T02:37:41.822Z,25.17
2023-02-08T02:41:07.394Z,23.38
2023-02-08T02:43:56.599Z,41.10
2023-02-08T02:47:02.160Z,25.83
2023-02-08T02:49:58.609Z,36.50
2023-02-08T02:53:07.756Z,31.92
2023-02-08T02:55:44.900Z,54.30
2023-02-08T02:58:18.129Z,20.08
2023-02-08T03:00:54.762Z,21.85
2023-02-08T03:03:29.181Z,17.55
2023-02-08T03:06:08.405Z,27.15
2023-02-08T03:09:23.286Z,21.38
2023-02-08T03:12:29.221Z,28.45
2023-02-08T03:15:15.889Z,20.98
2023-02-08T03:18:19.927Z,22.38
2023-02-08T03:21:18.660Z,18.77
2023-02-08T03:23:54.676Z,20.13
2023-02-08T03:26:59.784Z,18.70
2023-02-08T03:29:55.828Z,22.10
2023-02-08T03:32:43.678Z,22.73
2023-02-08T03:35:41.288Z,19.55
2023-02-08T03:38:33.422Z,21.20
2023-02-08T03:41:07.974Z,27.17
2023-02-08T03:44:19.929Z,22.55
2023-02-08T03:47:02.778Z,26.58
2023-02-08T03:49:37.798Z,20.13
2023-02-08T03:52:11.860Z,18.48
2023-02-08T03:55:13.393Z,21.58
2023-02-08T03:58:18.776Z,18.63
2023-02-08T04:00:57.764Z,20.85
2023-02-08T04:03:32.055Z,20.38
2023-02-08T04:06:01.395Z,16.10
2023-02-08T04:08:30.665Z,20.60
2023-02-08T04:11:00.481Z,19.98
2023-02-08T04:13:29.758Z,24.90
2023-02-08T04:15:59.378Z,14.48
2023-02-08T04:18:28.512Z,18.50
2023-02-08T04:20:57.813Z,17.38
2023-02-08T04:23:27.070Z,20.13
2023-02-08T04:25:56.217Z,16.25
2023-02-08T04:28:25.510Z,16.48
2023-02-08T04:31:00.670Z,17.95
2023-02-08T04:33:30.666Z,14.57
2023-02-08T04:35:59.873Z,15.50
2023-02-08T04:38:29.044Z,12.80
2023-02-08T04:40:58.130Z,18.17
2023-02-08T04:43:27.304Z,18.08
2023-02-08T04:45:56.654Z,19.75
2023-02-08T04:48:25.794Z,18.10
2023-02-08T04:51:01.677Z,17.80
2023-02-08T04:53:30.750Z,17.20
2023-02-08T04:55:59.993Z,14.90
2023-02-08T04:58:29.208Z,14.52
2023-02-08T05:00:58.504Z,15.50
2023-02-08T05:03:27.674Z,12.75
2023-02-08T05:06:01.964Z,13.52
2023-02-08T05:08:31.055Z,21.02
2023-02-08T05:11:00.311Z,17.02
2023-02-08T05:13:29.424Z,17.45
2023-02-08T05:16:00.186Z,13.35
2023-02-08T05:18:29.504Z,13.13
2023-02-08T05:21:01.817Z,13.27
2023-02-08T05:23:33.199Z,11.35
2023-02-08T05:26:06.430Z,21.30
2023-02-08T05:28:36.028Z,17.45
2023-02-08T05:31:27.056Z,12.80
2023-02-08T05:33:56.412Z,13.20
2023-02-08T05:36:25.949Z,14.98
2023-02-08T05:38:55.227Z,18.77
2023-02-08T05:41:24.645Z,12.70
2023-02-08T05:43:53.929Z,18.95
2023-02-08T05:46:23.202Z,18.02
2023-02-08T05:48:52.496Z,14.85
2023-02-08T05:51:22.147Z,13.15
2023-02-08T05:53:51.401Z,16.02
2023-02-08T05:56:20.715Z,20.10
2023-02-08T05:58:49.879Z,15.00
2023-02-08T06:01:19.683Z,14.73
2023-02-08T06:03:49.897Z,12.98
2023-02-08T06:06:19.269Z,10.88
2023-02-08T06:08:48.802Z,13.60
2023-02-08T06:11:20.258Z,17.35
2023-02-08T06:13:49.774Z,18.10
2023-02-08T06:16:20.428Z,15.27
2023-02-08T06:18:49.817Z,16.58
2023-02-08T06:21:19.008Z,17.88
2023-02-08T06:23:48.975Z,13.93
2023-02-08T06:26:18.235Z,15.18
2023-02-08T06:28:48.135Z,14.68
2023-02-08T06:31:17.464Z,18.15
2023-02-08T06:33:46.781Z,15.50
2023-02-08T06:36:15.953Z,12.88
2023-02-08T06:38:45.566Z,17.38
2023-02-08T06:41:14.926Z,14.50
2023-02-08T06:43:44.483Z,14.00
2023-02-08T06:46:13.755Z,12.88
2023-02-08T06:48:44.008Z,13.77
2023-02-08T06:51:13.170Z,22.33
2023-02-08T06:53:42.416Z,19.25
2023-02-08T06:56:11.616Z,17.67
2023-02-08T06:58:40.851Z,18.25
2023-02-08T07:01:15.293Z,21.25
2023-02-08T07:03:44.574Z,23.38
2023-02-08T07:06:21.142Z,17.50
2023-02-08T07:08:50.426Z,24.63
2023-02-08T07:11:21.987Z,18.58
2023-02-08T07:13:55.674Z,16.90
2023-02-08T07:16:25.573Z,17.98
2023-02-08T07:18:55.567Z,19.08
2023-02-08T07:21:25.273Z,15.50
2023-02-08T07:23:54.466Z,15.30
2023-02-08T07:26:23.730Z,25.30
2023-02-08T07:28:53.033Z,17.63
2023-02-08T07:31:22.286Z,13.45
2023-02-08T07:33:51.680Z,18.80
2023-02-08T07:36:21.030Z,14.68
2023-02-08T07:38:50.207Z,15.30
2023-02-08T07:41:19.599Z,16.95
2023-02-08T07:43:48.793Z,14.55
2023-02-08T07:46:22.030Z,18.33
2023-02-08T07:48:51.327Z,16.70
2023-02-08T07:51:20.930Z,14.98
2023-02-08T07:53:50.271Z,18.77
2023-02-08T07:56:19.891Z,14.60
2023-02-08T07:58:49.118Z,18.35
2023-02-08T08:01:22.816Z,12.15
2023-02-08T08:03:53.961Z,28.90
2023-02-08T08:06:25.117Z,13.82
2023-02-08T08:08:54.697Z,12.48
2023-02-08T08:11:24.809Z,23.98
2023-02-08T08:13:54.215Z,15.57
2023-02-08T08:16:24.495Z,12.50
2023-02-08T08:18:53.882Z,12.13
2023-02-08T08:21:23.233Z,21.65
2023-02-08T08:23:52.500Z,12.10
2023-02-08T08:26:23.654Z,13.57
2023-02-08T08:28:52.999Z,28.35
2023-02-08T08:31:25.040Z,20.98
2023-02-08T08:33:55.297Z,12.43
2023-02-08T08:36:24.607Z,18.52
2023-02-08T08:38:54.420Z,12.70
2023-02-08T08:41:24.165Z,15.50
2023-02-08T08:43:54.213Z,24.85
2023-02-08T08:46:23.707Z,17.13
2023-02-08T08:48:53.795Z,22.38
2023-02-08T08:51:23.219Z,12.80
2023-02-08T08:53:52.663Z,19.85
2023-02-08T08:56:21.927Z,14.85
2023-02-08T08:58:51.125Z,12.63
2023-02-08T09:01:20.609Z,25.60
2023-02-08T09:03:50.197Z,22.27
2023-02-08T09:06:20.006Z,22.48
2023-02-08T09:08:51.626Z,15.07
2023-02-08T09:11:21.353Z,11.65
2023-02-08T09:13:53.969Z,16.48
2023-02-08T09:16:26.531Z,19.77
2023-02-08T09:18:55.822Z,14.65
2023-02-08T09:21:26.400Z,21.75
2023-02-08T09:23:55.816Z,24.20
2023-02-08T09:26:27.623Z,16.77
2023-02-08T09:28:57.716Z,24.13
2023-02-08T09:31:31.149Z,15.45
2023-02-08T09:34:02.928Z,22.90
2023-02-08T09:36:36.646Z,17.15
2023-02-08T09:39:21.825Z,22.90
2023-02-08T09:42:10.604Z,20.80
2023-02-08T09:45:59.865Z,16.48
2023-02-08T09:48:42.444Z,20.58
2023-02-08T09:51:40.964Z,20.67
2023-02-08T09:54:27.639Z,16.60
2023-02-08T09:57:00.475Z,18.00
2023-02-08T09:59:35.131Z,24.33
2023-02-08T10:02:28.927Z,23.08
2023-02-08T10:05:01.556Z,25.73
2023-02-08T10:07:33.564Z,26.35
2023-02-08T10:10:09.008Z,13.98
2023-02-08T10:13:09.887Z,26.38
2023-02-08T10:16:06.948Z,18.83
2023-02-08T10:18:41.993Z,25.27
2023-02-08T10:21:35.959Z,21.70
2023-02-08T10:24:55.228Z,20.70
2023-02-08T10:28:09.931Z,22.38
2023-02-08T10:31:16.420Z,17.23
2023-02-08T10:34:26.160Z,17.05
2023-02-08T10:36:56.316Z,28.67
2023-02-08T10:39:37.340Z,18.38
2023-02-08T10:42:17.033Z,19.30
2023-02-08T10:45:50.929Z,23.65
2023-02-08T10:48:47.917Z,18.67
2023-02-08T10:51:23.912Z,18.87
2023-02-08T10:53:54.806Z,22.77
2023-02-08T10:56:48.834Z,17.67
2023-02-08T10:59:21.149Z,20.65
2023-02-08T11:01:52.089Z,23.05
2023-02-08T11:04:22.262Z,24.35
2023-02-08T11:06:55.544Z,24.30
2023-02-08T11:09:33.252Z,33.13
2023-02-08T11:12:04.344Z,27.35
2023-02-08T11:14:52.184Z,39.63
2023-02-08T11:17:35.114Z,30.05
2023-02-08T11:20:04.804Z,25.27
2023-02-08T11:22:35.522Z,27.52
2023-02-08T11:25:08.562Z,30.20
2023-02-08T11:27:50.451Z,39.08
2023-02-08T11:30:25.761Z,27.27
2023-02-08T11:33:23.690Z,24.35
2023-02-08T11:38:31.233Z,30.85
2023-02-08T11:41:05.664Z,29.48
2023-02-08T11:43:37.707Z,28.88
2023-02-08T11:46:07.982Z,29.92
2023-02-08T11:48:52.851Z,29.13
2023-02-08T11:51:36.812Z,31.63
2023-02-08T11:54:08.762Z,26.73
2023-02-08T11:56:38.131Z,21.08
2023-02-08T11:59:25.756Z,25.95
2023-02-08T12:01:55.022Z,29.20
2023-02-08T12:04:24.254Z,25.83
2023-02-08T12:07:15.481Z,39.63
2023-02-08T12:10:28.127Z,35.78
2023-02-08T12:13:18.563Z,39.90
2023-02-08T12:16:26.623Z,30.20
2023-02-08T12:19:36.787Z,29.73
2023-02-08T12:22:20.118Z,31.08
2023-02-08T12:25:31.038Z,24.30
2023-02-08T12:28:38.651Z,29.88
2023-02-08T12:31:41.704Z,29.63
2023-02-08T12:34:53.806Z,29.58
2023-02-08T12:38:09.984Z,42.65
2023-02-08T12:41:15.221Z,30.08
2023-02-08T12:43:50.341Z,33.95
2023-02-08T12:47:15.687Z,30.48
2023-02-08T12:50:10.169Z,30.02
2023-02-08T12:52:53.418Z,32.55
2023-02-08T12:55:37.040Z,35.15
2023-02-08T12:58:31.119Z,41.20
2023-02-08T13:01:33.368Z,32.40
2023-02-08T13:04:16.388Z,34.80
2023-02-08T13:06:53.116Z,35.00
2023-02-08T13:09:35.875Z,37.63
2023-02-08T13:12:29.279Z,32.85
2023-02-08T13:15:30.046Z,36.67
2023-02-08T13:18:12.437Z,34.70
2023-02-08T13:21:13.063Z,40.65
2023-02-08T13:23:52.755Z,40.00
2023-02-08T13:26:35.791Z,36.35
2023-02-08T13:29:05.934Z,39.53
2023-02-08T13:31:47.315Z,43.88
2023-02-08T13:34:55.219Z,42.28
2023-02-08T13:37:32.540Z,35.70
2023-02-08T13:40:29.566Z,41.30
2023-02-08T13:43:35.602Z,44.78
2023-02-08T13:46:06.811Z,46.17
2023-02-08T13:48:57.672Z,41.15
2023-02-08T13:51:55.275Z,43.17
2023-02-08T13:54:26.440Z,39.50
2023-02-08T13:56:56.621Z,43.65
2023-02-08T13:59:36.015Z,42.10
2023-02-08T14:02:20.787Z,57.17
2023-02-08T14:05:21.130Z,81.20
2023-02-08T14:07:54.618Z,93.40
2023-02-08T14:10:46.027Z,92.03
2023-02-08T14:13:40.890Z,86.43
2023-02-08T14:16:39.617Z,88.57
2023-02-08T14:19:25.725Z,75.63
2023-02-08T14:22:13.758Z,80.53
2023-02-08T14:24:50.083Z,86.68
2023-02-08T14:27:37.974Z,91.57
2023-02-08T14:30:19.223Z,78.32
2023-02-08T14:33:08.411Z,99.07
2023-02-08T14:35:55.042Z,76.75
2023-02-08T14:38:27.064Z,76.07
2023-02-08T14:41:05.585Z,71.18
2023-02-08T14:43:39.689Z,69.20
2023-02-08T14:46:43.066Z,60.35
2023-02-08T14:49:19.040Z,57.95
2023-02-08T14:52:00.557Z,60.17
2023-02-08T14:54:50.050Z,60.38
2023-02-08T14:57:35.411Z,68.68
2023-02-08T15:00:17.479Z,63.25
2023-02-08T15:02:49.290Z,61.97
2023-02-08T15:05:29.154Z,67.53
2023-02-08T15:08:05.752Z,67.32
2023-02-08T15:10:36.191Z,56.63
2023-02-08T15:13:18.810Z,60.50
2023-02-08T15:15:57.636Z,55.10
2023-02-08T15:18:35.950Z,56.50
2023-02-08T15:23:39.234Z,47.55
2023-02-08T15:26:24.639Z,47.85
2023-02-08T15:28:53.975Z,50.83
2023-02-08T15:31:35.156Z,52.88
2023-02-08T15:34:04.736Z,42.90
2023-02-08T15:36:38.870Z,43.30
2023-02-08T15:39:40.821Z,47.50
2023-02-08T15:42:23.449Z,52.92
2023-02-08T15:44:53.813Z,44.60
2023-02-08T15:47:43.396Z,38.45
2023-02-08T15:50:22.450Z,47.20
2023-02-08T15:53:01.216Z,38.53
2023-02-08T15:55:40.318Z,42.33
2023-02-08T15:58:29.722Z,40.22
2023-02-08T16:01:03.942Z,36.15
2023-02-08T16:03:34.639Z,38.47
2023-02-08T16:06:08.150Z,37.05
2023-02-08T16:08:43.848Z,41.20
2023-02-08T16:11:23.104Z,39.05
2023-02-08T16:13:57.421Z,78.07
2023-02-08T16:16:42.875Z,52.35
2023-02-08T16:19:34.987Z,38.75
2023-02-08T16:22:23.460Z,39.40
2023-02-08T16:24:52.804Z,34.28
2023-02-08T16:27:34.754Z,34.25
2023-02-08T16:30:04.194Z,36.80
2023-02-08T16:32:39.856Z,36.28
2023-02-08T16:35:30.513Z,39.63
2023-02-08T16:38:03.818Z,33.72
2023-02-08T16:40:56.856Z,36.80
2023-02-08T16:43:38.315Z,38.25
2023-02-08T16:46:18.419Z,35.80
2023-02-08T16:48:59.182Z,32.83
2023-02-08T16:51:35.082Z,33.20
2023-02-08T16:54:08.574Z,36.42
2023-02-08T16:56:39.126Z,37.60
2023-02-08T16:59:09.634Z,31.83
2023-02-08T17:01:51.740Z,32.45
2023-02-08T17:04:20.839Z,34.63
2023-02-08T17:06:50.075Z,38.22
2023-02-08T17:09:19.424Z,31.55
2023-02-08T17:11:48.650Z,32.13
2023-02-08T17:14:17.963Z,34.72
2023-02-08T17:16:47.441Z,33.17
2023-02-08T17:19:19.870Z,50.03
2023-02-08T17:21:49.062Z,36.65
2023-02-08T17:24:18.382Z,40.42
2023-02-08T17:26:48.109Z,34.25
2023-02-08T17:29:17.400Z,33.85
2023-02-08T17:31:46.965Z,36.88
2023-02-08T17:34:18.672Z,32.20
2023-02-08T17:36:47.816Z,34.38
2023-02-08T17:39:17.751Z,29.48
2023-02-08T17:41:46.922Z,30.55
2023-02-08T17:44:16.228Z,33.33
2023-02-08T17:46:45.378Z,31.77
2023-02-08T17:49:14.513Z,26.95
2023-02-08T17:51:43.663Z,31.58
2023-02-08T17:54:13.206Z,27.63
2023-02-08T17:56:42.365Z,34.78
2023-02-08T17:59:11.625Z,30.58
2023-02-08T18:01:41.044Z,32.15
2023-02-08T18:04:12.492Z,28.15
2023-02-08T18:06:41.724Z,26.48
2023-02-08T18:09:10.818Z,28.58
2023-02-08T18:11:39.978Z,29.83
2023-02-08T18:14:10.098Z,26.92
2023-02-08T18:16:39.828Z,28.88
2023-02-08T18:19:09.092Z,31.15
2023-02-08T18:21:38.412Z,32.15
2023-02-08T18:24:08.454Z,30.60
2023-02-08T18:26:37.745Z,29.30
2023-02-08T18:29:07.416Z,29.02
2023-02-08T18:31:36.821Z,34.33
2023-02-08T18:34:06.244Z,34.22
2023-02-08T18:36:35.552Z,32.97
2023-02-08T18:39:05.764Z,29.05
2023-02-08T18:41:35.314Z,30.98
2023-02-08T18:44:04.667Z,29.35
2023-02-08T18:46:34.030Z,34.08
2023-02-08T18:49:03.336Z,32.33
2023-02-08T18:51:32.746Z,35.00
2023-02-08T18:54:02.091Z,29.27
2023-02-08T18:56:33.410Z,30.80
2023-02-08T18:59:03.434Z,43.63
2023-02-08T19:01:33.028Z,31.88
2023-02-08T19:04:04.346Z,34.03
2023-02-08T19:06:37.606Z,31.90
2023-02-08T19:09:10.400Z,32.08
2023-02-08T19:11:42.989Z,37.70
2023-02-08T19:14:18.860Z,32.08
2023-02-08T19:16:48.955Z,31.80
2023-02-08T19:19:18.644Z,30.17
2023-02-08T19:21:48.036Z,30.45
2023-02-08T19:24:17.575Z,35.10
2023-02-08T19:26:47.626Z,33.25
2023-02-08T19:29:22.776Z,33.47
2023-02-08T19:31:52.159Z,35.78
2023-02-08T19:34:22.006Z,35.22
2023-02-08T19:36:56.179Z,34.15
2023-02-08T19:39:28.646Z,36.05
2023-02-08T19:41:59.523Z,32.25
2023-02-08T19:44:30.662Z,31.98
2023-02-08T19:47:00.909Z,28.48
2023-02-08T19:49:30.455Z,31.13
2023-02-08T19:52:00.106Z,28.20
2023-02-08T19:54:29.419Z,33.53
2023-02-08T19:56:58.806Z,29.00
2023-02-08T19:59:35.091Z,33.33
2023-02-08T20:02:05.441Z,33.90
2023-02-08T20:04:34.862Z,30.67
2023-02-08T20:07:04.836Z,33.70
2023-02-08T20:09:34.479Z,30.38
2023-02-08T20:12:04.068Z,30.38
2023-02-08T20:14:35.564Z,33.78
2023-02-08T20:17:06.179Z,32.55
2023-02-08T20:19:38.885Z,36.20
2023-02-08T20:22:08.080Z,31.35
2023-02-08T20:24:37.295Z,31.73
2023-02-08T20:27:06.718Z,27.45
2023-02-08T20:29:36.153Z,28.33
2023-02-08T20:32:05.498Z,31.27
2023-02-08T20:34:34.674Z,28.95
2023-02-08T20:37:07.655Z,27.25
2023-02-08T20:39:38.928Z,30.70
2023-02-08T20:42:08.257Z,33.80
2023-02-08T20:44:37.898Z,35.42
2023-02-08T20:47:07.172Z,32.00
2023-02-08T20:49:36.481Z,27.45
2023-02-08T20:52:05.961Z,33.13
2023-02-08T20:54:35.071Z,32.92
2023-02-08T20:57:04.408Z,34.75
2023-02-08T20:59:33.810Z,35.53
2023-02-08T21:02:02.963Z,42.60
2023-02-08T21:04:33.319Z,36.88
2023-02-08T21:07:02.800Z,31.83
2023-02-08T21:09:32.036Z,31.52
2023-02-08T21:12:01.362Z,33.25
2023-02-08T21:14:31.189Z,32.35
2023-02-08T21:17:02.044Z,32.67
2023-02-08T21:19:32.722Z,38.08
2023-02-08T21:22:07.711Z,39.58
2023-02-08T21:24:37.765Z,36.85
2023-02-08T21:27:07.672Z,62.63
2023-02-08T21:29:36.855Z,35.63
2023-02-08T21:32:06.347Z,40.97
2023-02-08T21:34:35.438Z,37.58
2023-02-08T21:37:04.584Z,35.88
2023-02-08T21:39:33.737Z,36.15
2023-02-08T21:42:03.653Z,34.20
2023-02-08T21:44:35.600Z,35.47
2023-02-08T21:47:04.917Z,37.13
2023-02-08T21:49:52.505Z,41.83
2023-02-08T21:52:40.104Z,37.13
2023-02-08T21:55:09.417Z,39.13
2023-02-08T21:57:41.931Z,42.30
2023-02-08T22:00:12.588Z,36.03
2023-02-08T22:02:41.907Z,35.28
2023-02-08T22:05:11.157Z,35.17
2023-02-08T22:07:58.134Z,35.42
2023-02-08T22:10:31.161Z,35.42
2023-02-08T22:13:00.783Z,37.13
2023-02-08T22:15:31.750Z,38.42
2023-02-08T22:18:03.427Z,42.47
2023-02-08T22:20:33.218Z,35.63
2023-02-08T22:23:03.177Z,37.75
2023-02-08T22:25:33.419Z,41.00
2023-02-08T22:28:02.784Z,43.47
2023-02-08T22:30:32.112Z,38.22
2023-02-08T22:33:01.398Z,37.42
2023-02-08T22:35:30.756Z,34.70
2023-02-08T22:38:00.029Z,39.50
2023-02-08T22:40:29.325Z,39.35
2023-02-08T22:42:58.628Z,37.22
2023-02-08T22:45:27.961Z,38.63
2023-02-08T22:47:57.172Z,37.90
2023-02-08T22:50:26.428Z,37.60
2023-02-08T22:52:55.804Z,41.33
2023-02-08T22:55:25.131Z,43.50
2023-02-08T22:57:54.373Z,42.55
2023-02-08T23:00:23.816Z,42.50
2023-02-08T23:02:53.087Z,44.35
2023-02-08T23:05:22.377Z,44.30
2023-02-08T23:07:51.718Z,43.63
2023-02-08T23:10:21.081Z,49.60
2023-02-08T23:12:50.459Z,46.10
2023-02-08T23:15:19.844Z,48.28
2023-02-08T23:17:49.815Z,48.33
2023-02-08T23:20:19.209Z,44.50
2023-02-08T23:22:48.354Z,44.60
2023-02-08T23:25:17.647Z,45.63
2023-02-08T23:27:46.853Z,45.58
2023-02-08T23:30:17.073Z,46.80
2023-02-08T23:32:46.322Z,46.17
2023-02-08T23:35:15.553Z,49.33
2023-02-08T23:37:44.633Z,50.03
2023-02-08T23:40:14.320Z,45.83
2023-02-08T23:42:43.422Z,48.42
2023-02-08T23:45:12.888Z,50.10
2023-02-08T23:47:42.384Z,53.80
2023-02-08T23:50:12.244Z,85.10
2023-02-08T23:52:41.597Z,60.78
2023-02-08T23:55:11.090Z,56.05
2023-02-08T23:57:40.758Z,64.93
